Time;durP1;ratioP1;P1;durP2;ratioP2;P2;SDS_P1;SDS_P2;PMS_P1;PMS_P2;Temp;Humidity;BMP_temperature;BMP_pressure;BME280_temperature;BME280_humidity;BME280_pressure;Samples;Min_cycle;Max_cycle;Signal;HPM_P1;HPM_P2
2020/12/12 00:00:52;;;;;;;10.80;7.77;;;;;;;3.72;89.32;94646.69;5013338;28;20191;-75
2020/12/12 00:03:18;;;;;;;10.43;8.20;;;;;;;3.82;88.04;94643.47;5004512;28;20285;-76
2020/12/12 00:05:43;;;;;;;9.23;7.40;;;;;;;3.69;89.45;94639.38;5011017;28;20640;-74
2020/12/12 00:08:09;;;;;;;10.57;7.40;;;;;;;3.57;90.07;94635.31;5011319;28;20191;-75
2020/12/12 00:10:34;;;;;;;9.80;7.33;;;;;;;3.82;89.09;94640.09;5011797;28;20190;-75
2020/12/12 00:13:00;;;;;;;10.90;7.70;;;;;;;3.97;87.71;94637.72;5010163;28;20188;-74
2020/12/12 00:15:25;;;;;;;11.07;8.17;;;;;;;3.70;89.58;94635.78;5018344;28;20651;-74
2020/12/12 00:17:51;;;;;;;9.23;7.30;;;;;;;3.79;88.46;94633.56;5010653;28;20231;-74
2020/12/12 00:20:16;;;;;;;9.80;7.47;;;;;;;4.02;86.91;94638.56;5011900;28;20187;-74
2020/12/12 00:22:42;;;;;;;10.67;8.00;;;;;;;3.95;86.98;94635.38;5009277;28;20203;-74
2020/12/12 00:25:09;;;;;;;9.47;7.47;;;;;;;3.91;87.41;94636.84;5025199;28;20189;-74
2020/12/12 00:27:34;;;;;;;9.43;7.50;;;;;;;3.80;88.28;94634.34;5011296;28;20278;-73
2020/12/12 00:30:00;;;;;;;11.90;7.60;;;;;;;3.81;88.38;94634.13;5010622;28;20420;-74
2020/12/12 00:32:25;;;;;;;10.73;8.03;;;;;;;3.85;87.10;94632.63;5001713;28;20179;-74
2020/12/12 00:34:51;;;;;;;11.07;8.10;;;;;;;3.97;86.70;94632.53;5013453;28;20237;-74
2020/12/12 00:37:18;;;;;;;13.97;8.57;;;;;;;3.94;87.15;94630.44;5015610;28;20179;-74
2020/12/12 00:39:45;;;;;;;9.93;7.90;;;;;;;3.85;87.33;94634.41;5015392;28;20214;-74
2020/12/12 00:42:11;;;;;;;11.37;7.93;;;;;;;3.85;87.52;94627.44;4998123;28;20187;-74
2020/12/12 00:44:36;;;;;;;10.80;8.03;;;;;;;3.81;87.27;94626.34;5015533;28;20214;-73
2020/12/12 00:47:06;;;;;;;11.53;8.40;;;;;;;3.90;87.21;94632.69;5013289;28;20804;-74
2020/12/12 00:49:31;;;;;;;10.17;7.93;;;;;;;3.88;87.33;94626.97;5014296;28;20183;-74
2020/12/12 00:51:57;;;;;;;9.53;7.60;;;;;;;3.98;86.86;94628.91;5013978;28;20218;-74
2020/12/12 00:54:23;;;;;;;11.63;8.07;;;;;;;3.97;87.14;94620.34;5010952;28;20221;-74
2020/12/12 00:56:48;;;;;;;9.00;7.70;;;;;;;3.85;87.53;94624.06;5014290;28;20546;-73
2020/12/12 00:59:13;;;;;;;10.50;7.83;;;;;;;3.95;87.25;94614.66;5015482;28;20651;-73
2020/12/12 01:01:51;;;;;;;10.77;7.80;;;;;;;4.03;86.48;94622.00;5015446;28;20191;-74
2020/12/12 01:04:16;;;;;;;10.20;7.90;;;;;;;3.89;87.57;94627.75;5014363;28;20199;-72
2020/12/12 01:06:41;;;;;;;11.73;8.23;;;;;;;3.75;87.52;94635.84;5014485;28;20194;-73
2020/12/12 01:09:07;;;;;;;10.43;7.17;;;;;;;3.89;87.31;94638.13;5014629;28;20183;-75
2020/12/12 01:11:33;;;;;;;11.30;8.60;;;;;;;3.95;86.83;94642.38;5014925;28;20656;-76
2020/12/12 01:13:58;;;;;;;10.23;8.07;;;;;;;3.72;87.76;94644.13;5012693;28;20195;-75
2020/12/12 01:16:23;;;;;;;11.43;8.60;;;;;;;3.83;87.69;94646.84;5014363;28;20183;-75
2020/12/12 01:18:49;;;;;;;12.50;8.83;;;;;;;3.92;86.75;94646.19;5013963;28;20229;-76
2020/12/12 01:21:16;;;;;;;12.20;7.60;;;;;;;3.86;87.61;94652.31;5014819;28;20207;-76
2020/12/12 01:23:42;;;;;;;12.73;8.63;;;;;;;3.93;86.88;94652.16;5014200;28;20264;-75
2020/12/12 01:26:07;;;;;;;11.40;8.50;;;;;;;3.90;87.05;94656.00;5014050;28;20187;-76
2020/12/12 01:28:34;;;;;;;11.67;8.27;;;;;;;4.01;85.79;94654.38;5014478;28;20262;-77
2020/12/12 01:30:59;;;;;;;10.53;7.87;;;;;;;3.96;86.58;94656.88;5013935;28;20193;-75
2020/12/12 01:33:25;;;;;;;11.27;8.63;;;;;;;3.73;87.21;94648.25;5014362;28;20583;-74
2020/12/12 01:35:50;;;;;;;11.87;8.40;;;;;;;3.85;85.94;94649.97;5013803;28;20183;-74
2020/12/12 01:38:16;;;;;;;9.83;7.77;;;;;;;3.84;86.47;94648.41;5014496;28;20183;-74
2020/12/12 01:40:41;;;;;;;10.37;7.70;;;;;;;3.72;86.62;94643.31;5013968;28;20539;-74
2020/12/12 01:43:11;;;;;;;10.53;7.80;;;;;;;3.91;86.56;94647.22;5014061;28;20203;-73
2020/12/12 01:45:37;;;;;;;12.30;8.17;;;;;;;3.83;87.03;94644.25;5013011;28;20250;-73
2020/12/12 01:48:04;;;;;;;12.23;8.67;;;;;;;3.94;86.86;94641.56;5013419;28;20198;-73
2020/12/12 01:50:29;;;;;;;10.50;7.60;;;;;;;3.58;88.15;94642.84;5014278;28;20176;-74
2020/12/12 01:52:56;;;;;;;11.67;8.40;;;;;;;3.68;88.03;94645.59;5000958;28;20184;-74
2020/12/12 01:55:22;;;;;;;10.60;7.63;;;;;;;3.65;87.54;94642.69;5014126;28;20644;-74
2020/12/12 01:57:50;;;;;;;9.90;7.17;;;;;;;3.55;88.59;94652.91;5013217;28;20278;-73
2020/12/12 02:00:15;;;;;;;9.33;7.27;;;;;;;3.67;87.85;94654.41;5014148;28;20262;-75
2020/12/12 02:02:46;;;;;;;9.97;7.80;;;;;;;3.67;87.48;94651.81;5012288;28;20770;-74
2020/12/12 02:05:38;;;;;;;11.63;7.67;;;;;;;3.49;88.21;94649.44;5013958;28;20176;-73
2020/12/12 02:08:05;;;;;;;12.43;7.60;;;;;;;3.45;88.69;94658.72;5012695;28;20447;-74
2020/12/12 02:10:30;;;;;;;10.23;7.87;;;;;;;3.54;88.07;94659.09;5014190;28;20643;-74
2020/12/12 02:12:56;;;;;;;9.47;7.70;;;;;;;3.46;88.77;94654.28;5012929;28;20277;-74
2020/12/12 02:15:21;;;;;;;10.10;7.40;;;;;;;3.48;88.05;94653.03;5013800;28;20194;-74
2020/12/12 02:17:47;;;;;;;10.67;7.43;;;;;;;3.47;89.32;94655.88;5013136;28;20223;-73
2020/12/12 02:20:12;;;;;;;9.47;7.50;;;;;;;3.54;87.83;94654.69;5013617;28;20187;-74
2020/12/12 02:22:37;;;;;;;9.17;7.33;;;;;;;3.49;88.97;94651.25;5013049;28;20242;-74
2020/12/12 02:25:03;;;;;;;10.80;7.73;;;;;;;3.51;88.63;94654.41;5012463;28;20742;-74
2020/12/12 02:27:28;;;;;;;9.00;7.03;;;;;;;3.51;88.49;94649.22;5013651;28;20219;-74
2020/12/12 02:29:54;;;;;;;11.87;7.40;;;;;;;3.46;89.49;94649.09;5012443;28;20322;-74
2020/12/12 02:32:19;;;;;;;8.10;6.60;;;;;;;3.44;89.50;94646.00;5013301;28;20175;-75
2020/12/12 02:34:45;;;;;;;9.17;7.20;;;;;;;3.35;89.84;94643.78;5012229;28;20684;-74
2020/12/12 02:37:10;;;;;;;8.60;6.93;;;;;;;3.35;89.46;94646.34;5012714;28;20188;-74
2020/12/12 02:39:36;;;;;;;9.10;6.80;;;;;;;3.50;88.07;94639.88;4997590;28;20190;-74
2020/12/12 02:42:01;;;;;;;8.87;6.93;;;;;;;3.33;89.19;94638.06;5012252;28;20774;-74
2020/12/12 02:44:26;;;;;;;9.83;7.10;;;;;;;3.46;88.74;94646.53;5011806;28;20208;-74
2020/12/12 02:46:52;;;;;;;9.67;7.23;;;;;;;3.52;88.84;94640.41;5012093;28;20206;-75
2020/12/12 02:49:18;;;;;;;9.83;7.83;;;;;;;3.51;88.55;94638.84;5012787;28;20183;-74
2020/12/12 02:51:43;;;;;;;10.07;7.57;;;;;;;3.40;88.94;94630.13;5012251;28;20590;-74
2020/12/12 02:54:09;;;;;;;11.10;7.33;;;;;;;3.45;89.13;94634.63;5015591;28;20186;-74
2020/12/12 02:56:35;;;;;;;10.63;7.27;;;;;;;3.51;88.51;94623.31;5012227;28;20183;-74
2020/12/12 02:59:01;;;;;;;10.87;6.73;;;;;;;3.54;88.49;94633.19;5011878;28;20192;-74
2020/12/12 03:01:26;;;;;;;10.63;7.83;;;;;;;3.64;87.94;94634.13;5012889;28;20189;-75
2020/12/12 03:03:52;;;;;;;10.77;7.57;;;;;;;3.72;87.46;94631.16;5012353;28;20210;-74
2020/12/12 03:06:18;;;;;;;9.57;7.40;;;;;;;3.81;87.24;94635.94;5013097;28;20179;-74
2020/12/12 03:08:43;;;;;;;9.53;7.47;;;;;;;3.75;87.34;94632.47;5011838;28;20214;-74
2020/12/12 03:11:08;;;;;;;8.80;6.60;;;;;;;3.76;86.81;94632.25;5012592;28;20237;-73
2020/12/12 03:13:34;;;;;;;8.87;6.63;;;;;;;3.75;87.47;94641.03;5012804;28;20187;-74
2020/12/12 03:15:59;;;;;;;8.27;6.83;;;;;;;3.69;88.20;94638.59;5011618;28;20842;-74
2020/12/12 03:18:25;;;;;;;8.03;6.27;;;;;;;3.65;88.29;94635.72;5012688;28;20223;-73
2020/12/12 03:20:50;;;;;;;8.13;6.27;;;;;;;3.80;88.20;94644.72;5011585;28;20194;-74
2020/12/12 03:23:16;;;;;;;7.77;6.30;;;;;;;3.87;87.90;94637.56;5012025;28;20203;-73
2020/12/12 03:25:41;;;;;;;8.57;6.83;;;;;;;3.93;87.02;94641.81;5012186;28;20262;-74
2020/12/12 03:28:07;;;;;;;7.27;6.10;;;;;;;4.05;86.81;94642.50;5012104;28;20275;-74
2020/12/12 03:30:36;;;;;;;8.20;6.57;;;;;;;4.18;85.94;94644.72;5012311;28;20187;-74
2020/12/12 03:33:03;;;;;;;9.43;6.57;;;;;;;3.90;87.41;94644.88;5011081;28;20195;-74
2020/12/12 03:35:28;;;;;;;9.30;7.00;;;;;;;4.01;86.97;94649.19;5012539;28;20191;-74
2020/12/12 03:37:56;;;;;;;8.60;6.53;;;;;;;3.81;88.44;94641.91;5011510;28;20238;-73
2020/12/12 03:40:23;;;;;;;8.53;6.57;;;;;;;3.96;87.27;94647.28;5005003;28;20195;-73
2020/12/12 03:42:50;;;;;;;9.30;6.27;;;;;;;3.77;88.69;94651.16;5011108;28;20570;-73
2020/12/12 03:45:16;;;;;;;6.90;5.57;;;;;;;3.71;89.29;94649.53;5011763;28;20285;-73
2020/12/12 03:47:41;;;;;;;8.67;6.23;;;;;;;3.79;89.67;94653.53;5011742;28;20271;-73
2020/12/12 03:50:07;;;;;;;8.27;5.93;;;;;;;4.03;88.44;94650.50;5011454;28;20206;-73
2020/12/12 03:52:32;;;;;;;6.43;5.40;;;;;;;3.92;89.06;94645.41;5011543;28;20195;-73
2020/12/12 03:54:57;;;;;;;8.37;5.70;;;;;;;3.91;88.89;94649.81;5010974;28;20266;-74
2020/12/12 03:57:23;;;;;;;7.43;6.43;;;;;;;3.89;88.75;94654.47;5011720;28;20632;-73
2020/12/12 03:59:48;;;;;;;8.63;6.50;;;;;;;3.91;89.37;94662.75;5010119;28;20270;-73
2020/12/12 04:02:13;;;;;;;6.10;5.50;;;;;;;3.84;89.16;94662.16;5011872;28;20636;-74
2020/12/12 04:04:39;;;;;;;7.43;6.17;;;;;;;3.84;89.37;94653.59;5011590;28;20230;-74
2020/12/12 04:07:04;;;;;;;7.97;5.80;;;;;;;3.87;89.92;94664.28;5008865;28;20230;-74
2020/12/12 04:09:30;;;;;;;7.13;5.80;;;;;;;3.80;90.04;94660.25;5011445;28;20628;-74
2020/12/12 04:11:55;;;;;;;8.07;6.33;;;;;;;3.87;89.45;94664.28;5011182;28;20712;-74
2020/12/12 04:14:21;;;;;;;6.30;5.40;;;;;;;3.85;90.22;94663.72;5011447;28;20187;-74
2020/12/12 04:16:48;;;;;;;9.23;6.20;;;;;;;3.99;89.68;94662.38;5010809;28;20590;-73
2020/12/12 04:19:14;;;;;;;8.00;6.20;;;;;;;3.89;89.50;94669.22;5011455;28;20184;-73
2020/12/12 04:21:39;;;;;;;7.37;5.87;;;;;;;3.86;89.46;94665.28;5010991;28;20537;-73
2020/12/12 04:24:04;;;;;;;7.17;5.80;;;;;;;3.87;89.07;94661.69;5011194;28;20191;-73
2020/12/12 04:26:30;;;;;;;7.63;6.30;;;;;;;3.90;89.52;94670.78;5009911;28;20579;-73
2020/12/12 04:28:55;;;;;;;6.33;5.67;;;;;;;3.84;90.69;94667.34;5004909;28;20290;-73
2020/12/12 04:31:21;;;;;;;6.73;5.80;;;;;;;3.95;90.03;94665.69;5021837;28;20642;-73
2020/12/12 04:33:46;;;;;;;7.63;6.20;;;;;;;3.93;89.23;94663.31;5010925;28;20198;-73
2020/12/12 04:36:11;;;;;;;8.17;6.53;;;;;;;3.96;89.25;94667.22;5012029;28;20187;-73
2020/12/12 04:38:37;;;;;;;8.37;6.80;;;;;;;3.91;89.04;94661.97;5011457;28;20183;-73
2020/12/12 04:41:03;;;;;;;8.47;6.73;;;;;;;3.96;89.17;94659.47;5010702;28;20347;-73
2020/12/12 04:43:30;;;;;;;9.13;6.73;;;;;;;3.88;89.48;94671.03;5011477;28;20282;-73
2020/12/12 04:45:56;;;;;;;7.70;6.40;;;;;;;3.87;89.67;94669.44;5010337;28;20187;-73
2020/12/12 04:48:22;;;;;;;8.30;6.40;;;;;;;3.92;90.09;94661.75;5011128;28;20595;-73
2020/12/12 04:50:48;;;;;;;7.83;6.40;;;;;;;3.96;89.32;94659.47;5010149;28;20187;-74
2020/12/12 04:53:24;;;;;;;7.23;5.97;;;;;;;3.86;89.89;94667.09;5013193;28;20202;-73
2020/12/12 04:55:51;;;;;;;8.43;5.70;;;;;;;3.91;90.11;94667.94;5011050;28;20187;-74
2020/12/12 04:58:23;;;;;;;7.37;6.23;;;;;;;3.91;89.77;94669.75;5011555;28;20257;-74
2020/12/12 05:00:49;;;;;;;8.00;6.10;;;;;;;3.87;90.28;94676.44;5010301;28;20575;-74
2020/12/12 05:03:17;;;;;;;6.97;5.83;;;;;;;3.95;89.67;94666.47;5010165;28;20218;-73
2020/12/12 05:05:43;;;;;;;7.40;6.03;;;;;;;3.85;89.72;94668.88;5011007;28;20355;-74
2020/12/12 05:08:09;;;;;;;6.70;6.00;;;;;;;3.87;89.91;94666.06;5010553;28;20206;-73
2020/12/12 05:10:43;;;;;;;7.13;5.83;;;;;;;3.88;90.44;94662.47;5011415;28;20632;-73
2020/12/12 05:13:25;;;;;;;8.57;5.57;;;;;;;3.95;90.67;94669.06;5009965;28;20308;-74
2020/12/12 05:15:52;;;;;;;7.47;5.40;;;;;;;4.06;89.03;94670.00;5009053;28;20191;-73
2020/12/12 05:18:18;;;;;;;7.27;5.53;;;;;;;3.88;90.51;94660.66;5010821;28;20329;-73
2020/12/12 05:20:44;;;;;;;5.93;5.20;;;;;;;3.95;90.12;94668.28;5013850;28;20266;-74
2020/12/12 05:23:18;;;;;;;6.47;5.47;;;;;;;4.02;90.24;94667.06;5014898;28;20239;-73
2020/12/12 05:25:45;;;;;;;5.83;5.20;;;;;;;3.98;90.71;94673.75;5013955;28;20241;-73
2020/12/12 05:28:13;;;;;;;5.90;5.23;;;;;;;4.17;89.51;94674.28;5014575;28;20221;-73
2020/12/12 05:30:40;;;;;;;5.77;5.10;;;;;;;4.19;89.26;94677.41;5019794;28;20187;-74
2020/12/12 05:33:09;;;;;;;5.67;4.90;;;;;;;4.08;89.77;94680.88;5013927;28;20192;-74
2020/12/12 05:35:35;;;;;;;6.57;5.43;;;;;;;4.34;88.48;94677.66;5014515;28;20190;-76
2020/12/12 05:38:06;;;;;;;6.17;5.27;;;;;;;4.14;89.28;94683.31;5014021;28;20179;-74
2020/12/12 05:40:32;;;;;;;6.63;5.30;;;;;;;4.05;89.68;94682.16;5014815;28;20187;-73
2020/12/12 05:43:06;;;;;;;5.80;4.97;;;;;;;4.04;90.21;94685.00;4998570;28;20207;-74
2020/12/12 05:45:32;;;;;;;6.10;5.50;;;;;;;3.95;90.70;94684.63;4998755;28;20214;-74
2020/12/12 05:47:57;;;;;;;7.00;5.50;;;;;;;4.03;90.72;94683.41;5013790;28;20229;-74
2020/12/12 05:50:27;;;;;;;7.63;5.83;;;;;;;4.02;90.38;94679.25;5013667;28;20199;-74
2020/12/12 05:52:54;;;;;;;6.77;5.50;;;;;;;4.06;90.20;94677.78;5013047;28;20198;-74
2020/12/12 05:55:25;;;;;;;6.10;5.50;;;;;;;4.17;89.97;94682.88;5013967;28;20270;-74
2020/12/12 05:57:52;;;;;;;6.60;5.60;;;;;;;4.13;90.16;94688.72;5013116;28;20184;-74
2020/12/12 06:00:20;;;;;;;7.73;5.97;;;;;;;4.14;89.79;94685.13;5013822;28;20195;-74
2020/12/12 06:02:52;;;;;;;6.47;5.10;;;;;;;4.23;89.73;94681.13;5013235;28;20175;-74
2020/12/12 06:05:27;;;;;;;6.00;4.90;;;;;;;4.17;91.13;94682.06;5028650;28;20620;-74
2020/12/12 06:07:55;;;;;;;4.47;4.07;;;;;;;4.31;90.45;94685.88;5013454;28;20183;-74
2020/12/12 06:10:28;;;;;;;5.63;4.17;;;;;;;4.21;91.27;94685.75;5014012;28;20192;-74
2020/12/12 06:13:04;;;;;;;5.23;4.50;;;;;;;4.13;91.40;94689.53;5011124;28;20570;-74
2020/12/12 06:15:34;;;;;;;5.17;4.67;;;;;;;4.33;91.27;94683.84;5003208;28;20530;-74
2020/12/12 06:18:18;;;;;;;5.03;4.43;;;;;;;4.15;92.26;94687.50;5004783;28;20815;-74
2020/12/12 06:20:45;;;;;;;4.33;4.00;;;;;;;4.17;92.55;94695.81;5004940;28;20191;-74
2020/12/12 06:23:11;;;;;;;4.10;3.70;;;;;;;4.08;93.45;94694.63;5006653;28;20675;-74
2020/12/12 06:25:37;;;;;;;4.43;3.73;;;;;;;4.05;94.20;94708.09;5009060;28;20195;-74
2020/12/12 06:28:03;;;;;;;4.53;4.10;;;;;;;4.15;93.70;94705.63;5005866;28;20186;-75
2020/12/12 06:30:30;;;;;;;4.17;3.77;;;;;;;4.21;94.04;94697.94;5012486;28;20187;-75
2020/12/12 06:33:03;;;;;;;4.53;3.80;;;;;;;4.22;94.36;94712.47;5012263;28;20187;-74
2020/12/12 06:35:35;;;;;;;4.00;3.60;;;;;;;4.30;93.67;94707.66;5013817;28;20183;-75
2020/12/12 06:38:23;;;;;;;4.30;3.90;;;;;;;4.16;94.96;94709.00;5011482;28;20679;-75
2020/12/12 06:40:51;;;;;;;4.90;3.40;;;;;;;4.22;94.86;94709.88;5011885;28;20342;-75
2020/12/12 06:43:26;;;;;;;4.33;3.93;;;;;;;4.19;94.55;94716.31;5013260;28;20195;-74
2020/12/12 06:45:51;;;;;;;3.87;3.57;;;;;;;4.20;95.59;94717.88;5012543;28;20655;-73
2020/12/12 06:48:23;;;;;;;4.90;3.73;;;;;;;4.17;95.35;94716.56;5013398;28;20280;-73
2020/12/12 06:50:48;;;;;;;3.83;3.53;;;;;;;4.31;94.50;94719.59;5011986;28;20656;-74
2020/12/12 06:53:24;;;;;;;4.77;3.97;;;;;;;4.22;95.02;94731.41;5011948;28;20186;-73
2020/12/12 06:56:15;;;;;;;3.87;3.43;;;;;;;4.21;95.80;94734.22;5003730;28;20194;-74
2020/12/12 06:58:42;;;;;;;3.60;3.30;;;;;;;4.26;95.81;94734.28;5017257;28;20192;-75
2020/12/12 07:01:32;;;;;;;3.90;3.50;;;;;;;4.21;95.55;94735.00;5012724;28;20186;-76
2020/12/12 07:04:05;;;;;;;3.90;3.53;;;;;;;4.23;95.92;94729.59;5011927;28;20264;-73
2020/12/12 07:06:33;;;;;;;4.30;3.67;;;;;;;4.17;95.94;94737.31;4996826;28;20249;-78
2020/12/12 07:09:07;;;;;;;4.67;4.00;;;;;;;4.39;97.34;94750.31;5011391;28;20240;-71
2020/12/12 07:11:33;;;;;;;4.60;3.63;;;;;;;4.54;94.95;94744.56;5012780;28;20647;-73
2020/12/12 07:14:00;;;;;;;3.97;3.57;;;;;;;4.51;93.82;94743.19;5011777;28;20195;-73
2020/12/12 07:16:26;;;;;;;4.37;3.97;;;;;;;4.58;93.55;94756.00;5012493;28;20258;-74
2020/12/12 07:18:53;;;;;;;4.53;3.60;;;;;;;4.46;93.98;94756.09;5011597;28;20678;-74
2020/12/12 07:21:19;;;;;;;3.73;3.30;;;;;;;4.76;91.80;94755.75;5011884;28;20187;-75
2020/12/12 07:23:45;;;;;;;3.87;3.17;;;;;;;4.59;93.17;94758.38;5011892;28;20210;-73
2020/12/12 07:26:10;;;;;;;3.63;3.20;;;;;;;4.59;93.38;94760.19;5012364;28;20233;-73
2020/12/12 07:28:37;;;;;;;4.17;3.27;;;;;;;4.52;93.50;94762.16;5010984;28;20187;-74
2020/12/12 07:31:03;;;;;;;3.30;3.00;;;;;;;4.59;92.77;94762.78;5011537;28;20418;-77
2020/12/12 07:33:29;;;;;;;4.03;3.30;;;;;;;4.57;92.81;94764.81;5012084;28;20192;-78
2020/12/12 07:35:55;;;;;;;3.43;3.13;;;;;;;4.61;92.54;94763.34;5011845;28;20640;-76
2020/12/12 07:38:20;;;;;;;4.73;3.60;;;;;;;4.78;91.20;94771.09;5012095;28;20191;-76
2020/12/12 07:40:46;;;;;;;4.43;3.70;;;;;;;4.63;91.97;94773.44;5011438;28;20230;-78
2020/12/12 07:43:11;;;;;;;7.47;3.67;;;;;;;4.67;91.28;94779.75;5011711;28;20195;-76
2020/12/12 07:46:01;;;;;;;3.90;3.50;;;;;;;4.47;92.92;94781.03;5012108;28;20572;-77
2020/12/12 07:48:27;;;;;;;4.17;3.50;;;;;;;4.58;92.42;94779.34;5012005;28;20527;-76
2020/12/12 07:50:52;;;;;;;4.00;3.60;;;;;;;4.70;91.79;94785.25;5010873;28;20202;-75
2020/12/12 07:53:19;;;;;;;4.37;3.57;;;;;;;4.59;91.85;94786.91;5018717;28;20187;-78
2020/12/12 07:55:54;;;;;;;4.07;3.40;;;;;;;4.59;91.37;94786.13;5011180;28;20226;-74
2020/12/12 07:58:25;;;;;;;3.57;3.27;;;;;;;4.51;91.86;94789.91;5019185;28;20277;-77
2020/12/12 08:00:56;;;;;;;3.83;3.43;;;;;;;4.48;91.81;94798.16;5010991;28;20678;-77
2020/12/12 08:03:22;;;;;;;3.80;3.43;;;;;;;4.66;90.87;94797.13;4995493;28;20558;-74
2020/12/12 08:05:47;;;;;;;4.20;3.80;;;;;;;4.57;91.22;94796.72;5011387;28;20186;-74
2020/12/12 08:08:12;;;;;;;3.63;3.30;;;;;;;4.72;90.49;94797.97;5012164;28;20195;-74
2020/12/12 08:10:38;;;;;;;4.10;3.70;;;;;;;4.74;90.43;94811.47;5011447;28;20663;-72
2020/12/12 08:13:03;;;;;;;4.00;3.60;;;;;;;4.70;90.86;94810.41;5010912;28;20184;-77
2020/12/12 08:15:43;;;;;;;3.90;3.53;;;;;;;4.78;90.60;94807.41;5011904;28;20187;-74
2020/12/12 08:18:13;;;;;;;4.40;3.37;;;;;;;4.81;89.88;94820.69;5011428;28;20695;-73
2020/12/12 08:20:38;;;;;;;4.00;3.37;;;;;;;4.93;89.05;94818.78;5011782;28;20194;-75
2020/12/12 08:23:05;;;;;;;5.67;3.43;;;;;;;4.85;89.37;94828.75;5010278;28;20199;-74
2020/12/12 08:25:31;;;;;;;3.40;3.10;;;;;;;4.89;89.43;94824.69;5012060;28;20175;-73
2020/12/12 08:27:56;;;;;;;4.50;3.30;;;;;;;4.78;90.01;94830.75;5010571;28;20245;-70
2020/12/12 08:30:24;;;;;;;4.27;3.27;;;;;;;4.93;90.16;94834.34;5010852;28;20606;-73
2020/12/12 08:32:50;;;;;;;3.70;3.30;;;;;;;4.96;90.24;94844.25;5001476;28;20274;-76
2020/12/12 08:35:29;;;;;;;3.67;3.37;;;;;;;4.94;90.89;94837.72;5011552;28;20287;-79
2020/12/12 08:38:04;;;;;;;4.50;3.30;;;;;;;4.94;91.25;94837.72;5008273;28;20198;-77
2020/12/12 08:40:48;;;;;;;3.40;3.10;;;;;;;4.94;91.71;94848.13;5011617;28;20179;-79
2020/12/12 08:43:15;;;;;;;3.43;3.13;;;;;;;4.88;91.98;94854.25;5011458;28;20698;-79
2020/12/12 08:45:42;;;;;;;5.70;2.90;;;;;;;5.07;90.59;94855.53;5010406;28;20237;-75
2020/12/12 08:48:10;;;;;;;3.63;3.33;;;;;;;5.04;90.01;94861.22;5011408;28;20211;-76
2020/12/12 08:50:50;;;;;;;3.10;2.80;;;;;;;5.10;89.79;94859.50;5010155;28;20637;-75
2020/12/12 08:53:30;;;;;;;3.57;3.27;;;;;;;5.03;90.14;94857.84;4994173;28;20214;-77
2020/12/12 08:56:08;;;;;;;3.43;3.13;;;;;;;5.10;89.81;94864.69;5014355;28;20202;-78
2020/12/12 08:58:42;;;;;;;4.47;3.37;;;;;;;5.26;89.25;94871.66;5014571;28;20187;-78
2020/12/12 09:01:32;;;;;;;3.57;3.27;;;;;;;5.32;88.95;94870.69;5013524;28;20210;-78
2020/12/12 09:04:07;;;;;;;3.13;2.90;;;;;;;5.33;88.42;94873.06;5013333;28;20199;-78
2020/12/12 09:06:45;;;;;;;3.40;3.00;;;;;;;5.26;89.01;94876.84;5015235;28;20230;-77
2020/12/12 09:09:28;;;;;;;3.33;3.03;;;;;;;5.23;90.03;94885.13;5014461;28;20651;-78
2020/12/12 09:12:02;;;;;;;3.50;3.20;;;;;;;5.28;90.02;94883.38;5013665;28;20195;-77
2020/12/12 09:14:33;;;;;;;3.83;3.43;;;;;;;5.21;89.93;94884.56;5009996;28;20182;-77
2020/12/12 09:17:00;;;;;;;3.30;3.00;;;;;;;5.20;90.49;94890.78;5007010;28;20223;-76
2020/12/12 09:19:27;;;;;;;3.87;2.83;;;;;;;5.24;90.01;94895.25;5014648;28;20194;-77
2020/12/12 09:21:53;;;;;;;3.73;2.70;;;;;;;5.31;90.53;94895.09;5013257;28;20187;-78
2020/12/12 09:24:21;;;;;;;2.87;2.33;;;;;;;5.20;91.37;94901.16;5022361;28;20206;-79
2020/12/12 09:26:48;;;;;;;3.03;2.73;;;;;;;5.30;90.58;94907.28;5012933;28;20225;-77
2020/12/12 09:29:13;;;;;;;2.53;2.33;;;;;;;5.38;89.92;94901.69;5005024;28;20218;-80
2020/12/12 09:31:39;;;;;;;2.60;2.40;;;;;;;5.38;89.88;94908.69;5014191;28;20207;-76
2020/12/12 09:34:05;;;;;;;2.53;2.33;;;;;;;5.41;89.43;94919.38;5013436;28;20568;-82
2020/12/12 09:36:30;;;;;;;2.80;2.60;;;;;;;5.47;88.98;94914.25;5017018;28;20192;-81
2020/12/12 09:38:56;;;;;;;2.67;2.47;;;;;;;5.55;88.37;94913.84;5007234;28;20187;-81
2020/12/12 09:41:21;;;;;;;2.60;2.40;;;;;;;5.61;88.98;94920.69;5010400;28;20559;-81
2020/12/12 09:43:48;;;;;;;2.50;2.30;;;;;;;5.66;88.67;94918.13;5008565;28;20250;-80
2020/12/12 09:46:18;;;;;;;2.60;2.40;;;;;;;5.77;88.08;94930.22;5004312;28;20192;-80
2020/12/12 09:48:43;;;;;;;2.47;2.20;;;;;;;5.75;87.68;94930.47;5003026;28;20198;-77
2020/12/12 09:51:10;;;;;;;3.47;2.60;;;;;;;5.93;86.99;94926.03;5022101;28;20187;-82
2020/12/12 09:53:36;;;;;;;3.33;3.03;;;;;;;5.86;87.34;94933.97;5013420;28;20261;-83
2020/12/12 09:56:01;;;;;;;2.57;2.37;;;;;;;6.06;86.30;94933.47;5012130;28;20588;-80
2020/12/12 09:58:27;;;;;;;2.70;2.50;;;;;;;6.07;85.65;94940.22;5013786;28;20209;-79
2020/12/12 10:00:52;;;;;;;2.70;2.50;;;;;;;6.02;85.75;94940.94;5013221;28;20183;-77
2020/12/12 10:03:18;;;;;;;2.50;2.10;;;;;;;5.86;87.08;94947.75;5014151;28;20207;-84
2020/12/12 10:05:44;;;;;;;2.40;2.20;;;;;;;6.10;86.28;94950.94;5012670;28;20274;-78
2020/12/12 10:08:09;;;;;;;2.40;2.20;;;;;;;6.03;86.21;94941.72;5013492;28;20180;-81
2020/12/12 10:10:35;;;;;;;2.10;2.00;;;;;;;6.16;85.67;94947.34;5014067;28;20187;-80
2020/12/12 10:13:00;;;;;;;2.53;2.33;;;;;;;6.41;83.94;94952.03;5013697;28;20190;-83
2020/12/12 10:15:27;;;;;;;2.60;2.40;;;;;;;6.28;84.23;94947.22;5014262;28;20194;-84
2020/12/12 10:17:53;;;;;;;2.60;2.20;;;;;;;6.28;84.48;94946.44;5019023;28;20262;-79
2020/12/12 10:20:19;;;;;;;2.17;2.07;;;;;;;6.34;84.49;94941.03;5013351;28;20199;-81
2020/12/12 10:22:45;;;;;;;2.30;2.10;;;;;;;6.23;84.44;94952.38;5012589;28;20525;-77
2020/12/12 10:25:11;;;;;;;2.00;1.90;;;;;;;6.23;85.34;94947.16;5023760;28;20192;-78
2020/12/12 10:27:38;;;;;;;2.47;2.10;;;;;;;6.43;83.44;94955.16;5013390;28;20195;-75
2020/12/12 10:30:06;;;;;;;1.97;1.87;;;;;;;6.46;83.66;94953.91;5012807;28;20203;-73
2020/12/12 10:32:31;;;;;;;2.07;1.97;;;;;;;6.55;83.10;94958.41;4999429;28;20179;-78
2020/12/12 10:34:57;;;;;;;2.07;1.87;;;;;;;6.56;83.58;94964.41;5012253;28;20539;-78
2020/12/12 10:37:23;;;;;;;1.93;1.83;;;;;;;6.55;82.83;94963.63;5013578;28;20214;-75
2020/12/12 10:41:00;;;;;;;2.20;2.00;;;;;;;6.55;83.73;94970.63;5012387;28;20586;-77
2020/12/12 10:42:43;;;;;;;1.83;1.70;;;;;;;6.44;84.75;94966.38;5007604;28;20440;-79
2020/12/12 10:45:09;;;;;;;1.90;1.70;;;;;;;6.65;83.62;94970.72;5014187;28;20651;-78
2020/12/12 10:47:35;;;;;;;2.00;1.90;;;;;;;6.83;82.58;94967.00;5013141;28;20229;-78
2020/12/12 10:50:01;;;;;;;2.30;2.10;;;;;;;6.73;83.32;94964.31;5022373;28;20277;-76
2020/12/12 10:52:27;;;;;;;2.60;2.00;;;;;;;6.62;84.27;94966.81;5012838;28;20539;-77
2020/12/12 10:54:52;;;;;;;3.20;2.10;;;;;;;6.71;83.68;94974.97;5011075;28;20192;-76
2020/12/12 10:57:18;;;;;;;2.73;2.53;;;;;;;6.82;83.61;94974.00;5003976;28;20710;-76
2020/12/12 10:59:44;;;;;;;3.40;1.93;;;;;;;6.74;84.29;94969.28;5004881;28;20187;-79
2020/12/12 11:02:11;;;;;;;2.67;2.07;;;;;;;6.63;84.69;94980.63;5012897;28;20667;-79
2020/12/12 11:04:38;;;;;;;2.37;2.20;;;;;;;6.69;85.08;94977.78;5012447;28;20204;-77
2020/12/12 11:07:04;;;;;;;3.50;2.10;;;;;;;6.83;84.07;94980.81;5007479;28;20171;-75
2020/12/12 11:09:30;;;;;;;3.13;2.10;;;;;;;6.88;83.75;94980.84;5012657;28;20624;-75
2020/12/12 11:11:56;;;;;;;2.03;1.93;;;;;;;6.90;84.15;94981.38;5011823;28;20198;-77
2020/12/12 11:14:21;;;;;;;2.53;1.80;;;;;;;6.93;83.99;94980.88;5018915;28;20195;-77
2020/12/12 11:16:47;;;;;;;1.90;1.80;;;;;;;7.01;83.96;94983.03;5009706;28;20262;-77
2020/12/12 11:19:12;;;;;;;2.20;2.00;;;;;;;7.13;82.81;94989.91;4995567;28;20226;-77
2020/12/12 11:21:40;;;;;;;2.20;2.00;;;;;;;7.03;83.40;94988.78;5013038;28;20191;-77
2020/12/12 11:24:06;;;;;;;2.23;2.00;;;;;;;6.92;83.67;94981.13;5011655;28;20210;-77
2020/12/12 11:26:32;;;;;;;3.33;2.13;;;;;;;6.91;83.62;94979.56;5019173;28;20203;-77
2020/12/12 11:28:57;;;;;;;3.33;1.93;;;;;;;7.04;83.59;94984.34;5012316;28;20298;-77
2020/12/12 11:31:24;;;;;;;2.10;2.00;;;;;;;6.99;84.05;94986.91;5012409;28;20188;-76
2020/12/12 11:33:55;;;;;;;2.10;1.90;;;;;;;7.05;84.27;94981.50;5011694;28;20195;-76
2020/12/12 11:39:41;;;;;;;2.63;1.93;;;;;;;7.09;84.70;94981.78;5011290;28;20190;-76
2020/12/12 11:44:56;;;;;;;3.83;1.90;;;;;;;7.21;85.66;94984.22;4962034;28;20223;-77
2020/12/12 11:47:24;;;;;;;2.40;2.20;;;;;;;7.30;85.25;94996.53;5011735;28;20647;-76
2020/12/12 11:49:49;;;;;;;2.10;1.90;;;;;;;7.33;84.72;94997.88;5012060;28;20179;-76